West Coast Haida Gwaii: Past 24 Hour Conditions

 

Herbert Island

07:00 PM PDT 19 April 2014
This table is a summary of hourly weather conditions for the past 24 hours.
Date / Time
(PDT)
Wind(knots) Conditions Visibility(km) Pressure(kPa) Air tempC) Relative humidity(%) Dew pointC)
19 April 2014
19:00 SSE 12 N/A N/A 100.9 8 86 6
18:00 S 8 gust 17 N/A N/A 100.7 8 88 6
17:00 SE 17 N/A N/A 100.6 8 89 6
16:00 SSE 23 gust 28 N/A N/A 100.4 8 86 6
15:00 SE 28 gust 33 N/A N/A 100.3 8 84 6
14:00 SE 28 gust 37 N/A N/A 100.1 9 81 5
13:00 SE 35 gust 45 N/A N/A 100.0 9 79 5
12:00 SE 44 gust 51 N/A N/A 99.9 9 68 4
11:00 SE 36 gust 47 N/A N/A 99.9 9 70 4
10:00 ESE 43 gust 49 N/A N/A 99.8 9 69 4
9:00 ESE 39 gust 49 N/A N/A 99.8 9 67 3
8:00 ESE 43 gust 53 N/A N/A 99.9 9 67 3
7:00 ESE 39 gust 50 N/A N/A 99.9 9 67 3
6:00 ESE 44 gust 52 N/A N/A 99.9 9 68 4
5:00 SE 37 gust 43 N/A N/A 100.1 9 70 4
4:00 SE 38 gust 47 N/A N/A 100.2 10 68 4
3:00 ESE 35 gust 44 N/A N/A 100.2 9 69 4
2:00 ESE 34 gust 42 N/A N/A 100.4 10 68 4
1:00 ESE 27 gust 33 N/A N/A 100.6 9 71 4
0:00 SE 31 gust 38 N/A N/A 100.7 9 75 5
18 April 2014
23:00 ESE 34 gust 39 N/A N/A 100.8 9 76 5
22:00 SE 27 N/A N/A 100.9 9 78 5
21:00 SSE 16 N/A N/A 101.1 9 78 5
20:00 SE 17 N/A N/A 101.1 9 77 5
19:00 SE 19 N/A N/A 101.2 9 72 5
 
Map of Pacific - South Coast marine weather areas Tsawwassen Ferry Terminal South Nomad - 46036 Sentry Shoal - 46131 South Brooks - 46132 Halibut Bank - 46146 South Moresby - 46147 South Hecate Strait - 46185 West Sea Otter - 46204 La Perouse Bank - 46206 East Dellwood - 46207 Discovery Island Esquimalt Harbour Kelp Reefs Malahat Race Rocks Lightstation Saturna Island Sheringham Point University of Victoria Victoria Gonzales Victoria Int'l Airport Ballenas Islands Campbell River Airport Comox Airport Entrance Island Fanny Island Nanaimo Airport Port Hardy Airport Sisters Islets Estevan Point Sartine Island Solander Island Tofino Airport Grief Point Powell River Airport Sechelt Cape St.James Bella Bella Airport Bella Coola Airport Cathedral Point Herbert Island Point Atkinson Sand Heads Lightstation Vancouver Harbour Vancouver Int'l Airport West Vancouver Port Alberni Howe Sound - Pam Rocks Squamish Airport